sensor_id;sensor_type;location;lat;lon;timestamp;temperature;humidity
64499;SHT31;51087;55.718;21.122;2023-03-14T00:01:16;7.28;99.99
64499;SHT31;51087;55.718;21.122;2023-03-14T00:03:42;7.38;99.99
64499;SHT31;51087;55.718;21.122;2023-03-14T00:06:08;7.47;99.99
64499;SHT31;51087;55.718;21.122;2023-03-14T00:08:34;7.41;99.99
64499;SHT31;51087;55.718;21.122;2023-03-14T00:11:14;7.44;99.99
64499;SHT31;51087;55.718;21.122;2023-03-14T00:13:40;7.51;99.99
64499;SHT31;51087;55.718;21.122;2023-03-14T00:16:08;7.42;99.99
64499;SHT31;51087;55.718;21.122;2023-03-14T00:18:34;7.41;99.99
64499;SHT31;51087;55.718;21.122;2023-03-14T00:21:02;7.35;99.99
64499;SHT31;51087;55.718;21.122;2023-03-14T00:23:29;7.35;99.99
64499;SHT31;51087;55.718;21.122;2023-03-14T00:26:08;7.32;99.99
64499;SHT31;51087;55.718;21.122;2023-03-14T00:28:34;7.22;99.99
64499;SHT31;51087;55.718;21.122;2023-03-14T00:31:02;7.10;99.99
64499;SHT31;51087;55.718;21.122;2023-03-14T00:33:28;7.10;99.99
64499;SHT31;51087;55.718;21.122;2023-03-14T00:36:02;7.05;99.99
64499;SHT31;51087;55.718;21.122;2023-03-14T00:38:30;7.07;99.99
64499;SHT31;51087;55.718;21.122;2023-03-14T00:40:55;7.04;99.99
64499;SHT31;51087;55.718;21.122;2023-03-14T00:43:21;6.97;99.99
64499;SHT31;51087;55.718;21.122;2023-03-14T00:45:50;6.89;99.99
64499;SHT31;51087;55.718;21.122;2023-03-14T00:48:17;6.89;99.99
64499;SHT31;51087;55.718;21.122;2023-03-14T00:50:43;6.84;99.99
64499;SHT31;51087;55.718;21.122;2023-03-14T00:53:09;6.84;99.99
64499;SHT31;51087;55.718;21.122;2023-03-14T00:55:38;6.84;99.99
64499;SHT31;51087;55.718;21.122;2023-03-14T00:58:05;6.82;99.99
64499;SHT31;51087;55.718;21.122;2023-03-14T01:00:30;6.76;99.99
64499;SHT31;51087;55.718;21.122;2023-03-14T01:02:56;6.82;99.99
64499;SHT31;51087;55.718;21.122;2023-03-14T01:05:22;6.75;99.99
64499;SHT31;51087;55.718;21.122;2023-03-14T01:07:48;6.84;99.99
64499;SHT31;51087;55.718;21.122;2023-03-14T01:10:13;6.84;99.99
64499;SHT31;51087;55.718;21.122;2023-03-14T01:12:39;6.83;99.99
64499;SHT31;51087;55.718;21.122;2023-03-14T01:15:04;6.83;99.99
64499;SHT31;51087;55.718;21.122;2023-03-14T01:17:30;6.93;99.99
64499;SHT31;51087;55.718;21.122;2023-03-14T01:19:55;7.03;99.99
64499;SHT31;51087;55.718;21.122;2023-03-14T01:22:21;7.11;99.99
64499;SHT31;51087;55.718;21.122;2023-03-14T01:24:46;7.07;99.99
64499;SHT31;51087;55.718;21.122;2023-03-14T01:27:12;7.04;99.99
64499;SHT31;51087;55.718;21.122;2023-03-14T01:29:38;7.07;99.99
64499;SHT31;51087;55.718;21.122;2023-03-14T01:32:03;6.99;99.99
64499;SHT31;51087;55.718;21.122;2023-03-14T01:34:29;7.08;99.99
64499;SHT31;51087;55.718;21.122;2023-03-14T01:36:54;7.20;99.99
64499;SHT31;51087;55.718;21.122;2023-03-14T01:39:19;7.20;99.99
64499;SHT31;51087;55.718;21.122;2023-03-14T01:41:45;7.31;99.99
64499;SHT31;51087;55.718;21.122;2023-03-14T01:44:11;7.34;99.99
64499;SHT31;51087;55.718;21.122;2023-03-14T01:54:40;7.54;99.99
64499;SHT31;51087;55.718;21.122;2023-03-14T01:59:40;7.65;99.99
64499;SHT31;51087;55.718;21.122;2023-03-14T02:02:09;7.70;99.96
64499;SHT31;51087;55.718;21.122;2023-03-14T02:04:36;7.73;99.53
64499;SHT31;51087;55.718;21.122;2023-03-14T02:09:31;7.83;99.53
64499;SHT31;51087;55.718;21.122;2023-03-14T02:11:57;7.86;99.23
64499;SHT31;51087;55.718;21.122;2023-03-14T02:14:29;7.83;99.22
64499;SHT31;51087;55.718;21.122;2023-03-14T02:16:57;7.82;99.04
64499;SHT31;51087;55.718;21.122;2023-03-14T02:19:40;7.73;99.43
64499;SHT31;51087;55.718;21.122;2023-03-14T02:22:13;7.93;98.94
64499;SHT31;51087;55.718;21.122;2023-03-14T02:27:25;7.96;98.79
64499;SHT31;51087;55.718;21.122;2023-03-14T02:30:00;7.90;98.75
64499;SHT31;51087;55.718;21.122;2023-03-14T02:32:29;7.90;99.03
64499;SHT31;51087;55.718;21.122;2023-03-14T02:34:57;7.89;99.02
64499;SHT31;51087;55.718;21.122;2023-03-14T02:37:28;7.82;98.87
64499;SHT31;51087;55.718;21.122;2023-03-14T02:39:55;7.93;98.60
64499;SHT31;51087;55.718;21.122;2023-03-14T02:42:21;7.80;98.80
64499;SHT31;51087;55.718;21.122;2023-03-14T02:47:32;7.97;98.47
64499;SHT31;51087;55.718;21.122;2023-03-14T02:50:04;7.93;98.30
64499;SHT31;51087;55.718;21.122;2023-03-14T02:52:29;7.93;98.49
64499;SHT31;51087;55.718;21.122;2023-03-14T02:54:55;7.89;98.58
64499;SHT31;51087;55.718;21.122;2023-03-14T02:57:20;7.87;98.74
64499;SHT31;51087;55.718;21.122;2023-03-14T02:59:46;7.80;98.66
64499;SHT31;51087;55.718;21.122;2023-03-14T03:02:11;7.89;98.83
64499;SHT31;51087;55.718;21.122;2023-03-14T03:04:36;7.90;98.74
64499;SHT31;51087;55.718;21.122;2023-03-14T03:07:02;7.96;98.60
64499;SHT31;51087;55.718;21.122;2023-03-14T03:09:27;8.03;98.38
64499;SHT31;51087;55.718;21.122;2023-03-14T03:11:53;8.08;97.95
64499;SHT31;51087;55.718;21.122;2023-03-14T03:14:18;8.10;97.91
64499;SHT31;51087;55.718;21.122;2023-03-14T03:16:44;8.17;98.00
64499;SHT31;51087;55.718;21.122;2023-03-14T03:19:09;8.21;97.79
64499;SHT31;51087;55.718;21.122;2023-03-14T03:21:34;8.31;97.54
64499;SHT31;51087;55.718;21.122;2023-03-14T03:24:00;8.30;97.49
64499;SHT31;51087;55.718;21.122;2023-03-14T03:26:25;8.28;97.52
64499;SHT31;51087;55.718;21.122;2023-03-14T03:28:51;8.28;97.47
64499;SHT31;51087;55.718;21.122;2023-03-14T03:31:18;8.27;97.33
64499;SHT31;51087;55.718;21.122;2023-03-14T03:33:43;8.14;97.68
64499;SHT31;51087;55.718;21.122;2023-03-14T03:36:09;8.13;97.98
64499;SHT31;51087;55.718;21.122;2023-03-14T03:38:35;8.04;98.29
64499;SHT31;51087;55.718;21.122;2023-03-14T03:41:07;8.07;98.19
64499;SHT31;51087;55.718;21.122;2023-03-14T03:43:35;8.06;98.19
64499;SHT31;51087;55.718;21.122;2023-03-14T03:46:05;7.97;98.22
64499;SHT31;51087;55.718;21.122;2023-03-14T03:48:30;7.79;98.28
64499;SHT31;51087;55.718;21.122;2023-03-14T03:50:56;7.66;98.65
64499;SHT31;51087;55.718;21.122;2023-03-14T03:53:21;7.68;98.82
64499;SHT31;51087;55.718;21.122;2023-03-14T03:55:46;7.58;98.97
64499;SHT31;51087;55.718;21.122;2023-03-14T03:58:12;7.44;98.89
64499;SHT31;51087;55.718;21.122;2023-03-14T04:00:37;7.38;99.38
64499;SHT31;51087;55.718;21.122;2023-03-14T04:03:04;7.18;99.37
64499;SHT31;51087;55.718;21.122;2023-03-14T04:05:29;6.75;98.77
64499;SHT31;51087;55.718;21.122;2023-03-14T04:07:55;6.56;99.36
64499;SHT31;51087;55.718;21.122;2023-03-14T04:10:20;6.50;99.99
64499;SHT31;51087;55.718;21.122;2023-03-14T04:12:46;6.34;99.99
64499;SHT31;51087;55.718;21.122;2023-03-14T04:15:11;6.00;99.99
64499;SHT31;51087;55.718;21.122;2023-03-14T04:17:37;6.00;99.99
64499;SHT31;51087;55.718;21.122;2023-03-14T04:20:03;5.89;99.99
64499;SHT31;51087;55.718;21.122;2023-03-14T04:22:29;5.94;99.99
64499;SHT31;51087;55.718;21.122;2023-03-14T04:24:54;6.00;99.99
64499;SHT31;51087;55.718;21.122;2023-03-14T04:27:19;6.10;99.99
64499;SHT31;51087;55.718;21.122;2023-03-14T04:29:45;6.04;99.99
64499;SHT31;51087;55.718;21.122;2023-03-14T04:32:10;6.01;99.99
64499;SHT31;51087;55.718;21.122;2023-03-14T04:34:36;6.14;99.99
64499;SHT31;51087;55.718;21.122;2023-03-14T04:37:01;6.29;99.99
64499;SHT31;51087;55.718;21.122;2023-03-14T04:39:27;6.32;99.99
64499;SHT31;51087;55.718;21.122;2023-03-14T04:41:52;6.45;99.99
64499;SHT31;51087;55.718;21.122;2023-03-14T04:44:18;6.63;99.99
64499;SHT31;51087;55.718;21.122;2023-03-14T04:46:43;6.77;99.99
64499;SHT31;51087;55.718;21.122;2023-03-14T04:49:09;6.92;99.99
64499;SHT31;51087;55.718;21.122;2023-03-14T04:51:34;6.79;99.99
64499;SHT31;51087;55.718;21.122;2023-03-14T04:54:00;6.79;99.99
64499;SHT31;51087;55.718;21.122;2023-03-14T04:56:26;6.71;99.99
64499;SHT31;51087;55.718;21.122;2023-03-14T04:58:52;6.55;99.99
64499;SHT31;51087;55.718;21.122;2023-03-14T05:01:18;6.44;99.99
64499;SHT31;51087;55.718;21.122;2023-03-14T05:03:43;6.24;99.99
64499;SHT31;51087;55.718;21.122;2023-03-14T05:06:09;6.17;99.99
64499;SHT31;51087;55.718;21.122;2023-03-14T05:08:34;6.07;99.99
64499;SHT31;51087;55.718;21.122;2023-03-14T05:10:59;6.03;99.99
64499;SHT31;51087;55.718;21.122;2023-03-14T05:13:25;6.07;99.99
64499;SHT31;51087;55.718;21.122;2023-03-14T05:15:51;6.11;99.99
64499;SHT31;51087;55.718;21.122;2023-03-14T05:18:17;5.97;99.99
64499;SHT31;51087;55.718;21.122;2023-03-14T05:20:42;6.03;99.99
64499;SHT31;51087;55.718;21.122;2023-03-14T05:23:09;6.28;99.99
64499;SHT31;51087;55.718;21.122;2023-03-14T05:25:34;6.31;99.99
64499;SHT31;51087;55.718;21.122;2023-03-14T05:27:59;6.49;99.99
64499;SHT31;51087;55.718;21.122;2023-03-14T05:30:25;6.37;99.99
64499;SHT31;51087;55.718;21.122;2023-03-14T05:32:50;6.22;99.99
64499;SHT31;51087;55.718;21.122;2023-03-14T05:35:16;6.39;99.99
64499;SHT31;51087;55.718;21.122;2023-03-14T05:37:42;6.44;99.99
64499;SHT31;51087;55.718;21.122;2023-03-14T05:40:07;6.38;99.99
64499;SHT31;51087;55.718;21.122;2023-03-14T05:42:34;6.38;99.99
64499;SHT31;51087;55.718;21.122;2023-03-14T05:44:59;6.38;99.99
64499;SHT31;51087;55.718;21.122;2023-03-14T05:47:25;6.39;99.99
64499;SHT31;51087;55.718;21.122;2023-03-14T05:49:50;6.32;99.99
64499;SHT31;51087;55.718;21.122;2023-03-14T05:52:16;6.22;99.99
64499;SHT31;51087;55.718;21.122;2023-03-14T05:54:41;6.16;99.99
64499;SHT31;51087;55.718;21.122;2023-03-14T05:57:06;6.14;99.99
64499;SHT31;51087;55.718;21.122;2023-03-14T05:59:32;6.22;99.99
64499;SHT31;51087;55.718;21.122;2023-03-14T06:01:57;6.34;99.99
64499;SHT31;51087;55.718;21.122;2023-03-14T06:04:23;6.34;99.99
64499;SHT31;51087;55.718;21.122;2023-03-14T06:06:49;6.29;99.99
64499;SHT31;51087;55.718;21.122;2023-03-14T06:09:14;6.24;99.99
64499;SHT31;51087;55.718;21.122;2023-03-14T06:11:40;6.22;99.99
64499;SHT31;51087;55.718;21.122;2023-03-14T06:14:05;6.24;99.99
64499;SHT31;51087;55.718;21.122;2023-03-14T06:16:31;6.17;99.99
64499;SHT31;51087;55.718;21.122;2023-03-14T06:18:57;6.16;99.90
64499;SHT31;51087;55.718;21.122;2023-03-14T06:21:22;6.24;99.99
64499;SHT31;51087;55.718;21.122;2023-03-14T06:23:48;6.37;99.99
64499;SHT31;51087;55.718;21.122;2023-03-14T06:26:13;6.44;99.55
64499;SHT31;51087;55.718;21.122;2023-03-14T06:28:39;6.37;99.00
64499;SHT31;51087;55.718;21.122;2023-03-14T06:31:05;6.29;98.73
64499;SHT31;51087;55.718;21.122;2023-03-14T06:33:30;6.18;98.51
64499;SHT31;51087;55.718;21.122;2023-03-14T06:35:56;6.08;98.52
64499;SHT31;51087;55.718;21.122;2023-03-14T06:38:21;6.06;98.77
64499;SHT31;51087;55.718;21.122;2023-03-14T06:40:46;5.97;98.82
64499;SHT31;51087;55.718;21.122;2023-03-14T06:43:12;5.96;99.04
64499;SHT31;51087;55.718;21.122;2023-03-14T06:45:38;5.86;98.63
64499;SHT31;51087;55.718;21.122;2023-03-14T06:48:03;5.85;99.00
64499;SHT31;51087;55.718;21.122;2023-03-14T06:50:29;5.97;98.88
64499;SHT31;51087;55.718;21.122;2023-03-14T06:52:54;5.91;98.70
64499;SHT31;51087;55.718;21.122;2023-03-14T06:55:20;5.91;98.32
64499;SHT31;51087;55.718;21.122;2023-03-14T06:57:45;5.85;98.15
64499;SHT31;51087;55.718;21.122;2023-03-14T07:00:12;5.91;98.35
64499;SHT31;51087;55.718;21.122;2023-03-14T07:02:38;5.96;98.24
64499;SHT31;51087;55.718;21.122;2023-03-14T07:05:04;6.03;98.43
64499;SHT31;51087;55.718;21.122;2023-03-14T07:07:29;6.06;97.95
64499;SHT31;51087;55.718;21.122;2023-03-14T07:09:55;6.13;97.72
64499;SHT31;51087;55.718;21.122;2023-03-14T07:12:20;6.17;97.45
64499;SHT31;51087;55.718;21.122;2023-03-14T07:14:46;6.31;97.52
64499;SHT31;51087;55.718;21.122;2023-03-14T07:17:11;6.49;97.63
64499;SHT31;51087;55.718;21.122;2023-03-14T07:19:37;6.62;97.36
64499;SHT31;51087;55.718;21.122;2023-03-14T07:22:04;6.56;96.28
64499;SHT31;51087;55.718;21.122;2023-03-14T07:24:29;6.41;96.40
64499;SHT31;51087;55.718;21.122;2023-03-14T07:26:54;6.52;96.68
64499;SHT31;51087;55.718;21.122;2023-03-14T07:29:20;6.62;96.75
64499;SHT31;51087;55.718;21.122;2023-03-14T07:31:45;6.82;96.83
64499;SHT31;51087;55.718;21.122;2023-03-14T07:34:11;6.84;96.37
64499;SHT31;51087;55.718;21.122;2023-03-14T07:36:36;6.83;96.18
64499;SHT31;51087;55.718;21.122;2023-03-14T07:39:02;6.62;95.81
64499;SHT31;51087;55.718;21.122;2023-03-14T07:41:27;6.75;96.26
64499;SHT31;51087;55.718;21.122;2023-03-14T07:43:53;6.92;96.38
64499;SHT31;51087;55.718;21.122;2023-03-14T07:46:18;7.03;96.08
64499;SHT31;51087;55.718;21.122;2023-03-14T07:48:44;7.04;95.70
64499;SHT31;51087;55.718;21.122;2023-03-14T07:51:09;7.15;96.39
64499;SHT31;51087;55.718;21.122;2023-03-14T07:53:35;7.28;96.00
64499;SHT31;51087;55.718;21.122;2023-03-14T07:56:00;7.15;95.50
64499;SHT31;51087;55.718;21.122;2023-03-14T07:58:26;7.20;95.74
64499;SHT31;51087;55.718;21.122;2023-03-14T08:00:51;7.24;95.62
64499;SHT31;51087;55.718;21.122;2023-03-14T08:03:17;7.25;95.25
64499;SHT31;51087;55.718;21.122;2023-03-14T08:05:43;7.35;95.23
64499;SHT31;51087;55.718;21.122;2023-03-14T08:08:09;7.41;95.00
64499;SHT31;51087;55.718;21.122;2023-03-14T08:10:34;7.52;94.67
64499;SHT31;51087;55.718;21.122;2023-03-14T08:13:00;7.62;94.58
64499;SHT31;51087;55.718;21.122;2023-03-14T08:15:28;7.72;93.80
64499;SHT31;51087;55.718;21.122;2023-03-14T08:17:54;7.68;93.34
64499;SHT31;51087;55.718;21.122;2023-03-14T08:20:21;7.77;93.33
64499;SHT31;51087;55.718;21.122;2023-03-14T08:22:47;7.91;92.82
64499;SHT31;51087;55.718;21.122;2023-03-14T08:25:13;8.20;92.62
64499;SHT31;51087;55.718;21.122;2023-03-14T08:27:38;8.31;91.91
64499;SHT31;51087;55.718;21.122;2023-03-14T08:30:05;8.42;91.61
64499;SHT31;51087;55.718;21.122;2023-03-14T08:32:31;8.56;91.64
64499;SHT31;51087;55.718;21.122;2023-03-14T08:34:57;8.66;91.00
64499;SHT31;51087;55.718;21.122;2023-03-14T08:37:22;8.72;90.62
64499;SHT31;51087;55.718;21.122;2023-03-14T08:39:49;8.77;90.85
64499;SHT31;51087;55.718;21.122;2023-03-14T08:42:14;8.73;90.49
64499;SHT31;51087;55.718;21.122;2023-03-14T08:44:40;8.56;90.24
64499;SHT31;51087;55.718;21.122;2023-03-14T08:47:05;8.33;90.80
64499;SHT31;51087;55.718;21.122;2023-03-14T08:49:31;8.30;90.93
64499;SHT31;51087;55.718;21.122;2023-03-14T08:51:56;8.10;91.15
64499;SHT31;51087;55.718;21.122;2023-03-14T08:54:21;8.04;91.60
64499;SHT31;51087;55.718;21.122;2023-03-14T08:56:47;8.01;91.40
64499;SHT31;51087;55.718;21.122;2023-03-14T08:59:12;8.00;90.97
64499;SHT31;51087;55.718;21.122;2023-03-14T09:01:38;7.82;91.42
64499;SHT31;51087;55.718;21.122;2023-03-14T09:04:03;8.06;91.04
64499;SHT31;51087;55.718;21.122;2023-03-14T09:06:29;8.30;90.21
64499;SHT31;51087;55.718;21.122;2023-03-14T09:08:54;8.65;87.92
64499;SHT31;51087;55.718;21.122;2023-03-14T09:11:20;8.49;88.84
64499;SHT31;51087;55.718;21.122;2023-03-14T09:13:45;8.58;89.26
64499;SHT31;51087;55.718;21.122;2023-03-14T09:16:11;8.87;87.92
64499;SHT31;51087;55.718;21.122;2023-03-14T09:18:36;8.89;87.94
64499;SHT31;51087;55.718;21.122;2023-03-14T09:21:02;8.84;87.67
64499;SHT31;51087;55.718;21.122;2023-03-14T09:23:27;8.61;88.52
64499;SHT31;51087;55.718;21.122;2023-03-14T09:25:57;8.49;89.24
64499;SHT31;51087;55.718;21.122;2023-03-14T09:28:23;8.41;90.25
64499;SHT31;51087;55.718;21.122;2023-03-14T09:30:49;8.46;90.28
64499;SHT31;51087;55.718;21.122;2023-03-14T09:33:15;8.33;89.95
64499;SHT31;51087;55.718;21.122;2023-03-14T09:35:41;8.13;90.39
64499;SHT31;51087;55.718;21.122;2023-03-14T09:38:06;7.52;91.59
64499;SHT31;51087;55.718;21.122;2023-03-14T09:40:35;7.56;92.23
64499;SHT31;51087;55.718;21.122;2023-03-14T09:43:01;7.47;91.94
64499;SHT31;51087;55.718;21.122;2023-03-14T09:45:31;7.59;92.36
64499;SHT31;51087;55.718;21.122;2023-03-14T09:47:58;7.56;92.28
64499;SHT31;51087;55.718;21.122;2023-03-14T09:50:25;7.55;91.81
64499;SHT31;51087;55.718;21.122;2023-03-14T09:53:02;7.63;91.59
64499;SHT31;51087;55.718;21.122;2023-03-14T09:55:28;7.70;91.99
64499;SHT31;51087;55.718;21.122;2023-03-14T09:58:00;7.79;91.83
64499;SHT31;51087;55.718;21.122;2023-03-14T10:00:29;7.62;91.39
64499;SHT31;51087;55.718;21.122;2023-03-14T10:05:42;7.38;93.30
64499;SHT31;51087;55.718;21.122;2023-03-14T10:08:12;7.18;93.93
64499;SHT31;51087;55.718;21.122;2023-03-14T10:10:39;7.21;94.03
64499;SHT31;51087;55.718;21.122;2023-03-14T10:13:16;7.15;93.99
64499;SHT31;51087;55.718;21.122;2023-03-14T10:15:47;7.00;94.23
64499;SHT31;51087;55.718;21.122;2023-03-14T10:18:13;6.86;94.92
64499;SHT31;51087;55.718;21.122;2023-03-14T10:20:45;6.77;95.33
64499;SHT31;51087;55.718;21.122;2023-03-14T10:25:40;6.89;95.37
64499;SHT31;51087;55.718;21.122;2023-03-14T10:28:23;7.00;94.58
64499;SHT31;51087;55.718;21.122;2023-03-14T10:30:49;7.08;94.76
64499;SHT31;51087;55.718;21.122;2023-03-14T10:35:43;7.15;94.91
64499;SHT31;51087;55.718;21.122;2023-03-14T10:38:13;7.21;94.72
64499;SHT31;51087;55.718;21.122;2023-03-14T10:40:41;7.54;94.01
64499;SHT31;51087;55.718;21.122;2023-03-14T10:43:17;7.68;93.56
64499;SHT31;51087;55.718;21.122;2023-03-14T10:45:45;7.59;93.27
64499;SHT31;51087;55.718;21.122;2023-03-14T10:50:55;8.24;91.49
64499;SHT31;51087;55.718;21.122;2023-03-14T10:53:20;8.76;90.37
64499;SHT31;51087;55.718;21.122;2023-03-14T10:55:46;9.10;88.18
64499;SHT31;51087;55.718;21.122;2023-03-14T10:58:40;9.52;86.43
64499;SHT31;51087;55.718;21.122;2023-03-14T11:03:45;9.07;87.82
64499;SHT31;51087;55.718;21.122;2023-03-14T11:09:06;8.46;90.18
64499;SHT31;51087;55.718;21.122;2023-03-14T11:11:33;8.55;90.06
64499;SHT31;51087;55.718;21.122;2023-03-14T11:14:33;8.34;90.11
64499;SHT31;51087;55.718;21.122;2023-03-14T11:28:22;7.55;92.53
64499;SHT31;51087;55.718;21.122;2023-03-14T11:30:53;7.45;92.99
64499;SHT31;51087;55.718;21.122;2023-03-14T11:33:29;7.36;93.11
64499;SHT31;51087;55.718;21.122;2023-03-14T11:36:09;7.41;93.30
64499;SHT31;51087;55.718;21.122;2023-03-14T11:38:57;7.28;93.21
64499;SHT31;51087;55.718;21.122;2023-03-14T11:41:27;7.17;93.46
64499;SHT31;51087;55.718;21.122;2023-03-14T11:43:57;7.10;93.40
64499;SHT31;51087;55.718;21.122;2023-03-14T11:46:25;7.04;93.94
64499;SHT31;51087;55.718;21.122;2023-03-14T11:48:56;6.90;94.75
64499;SHT31;51087;55.718;21.122;2023-03-14T11:51:29;6.94;94.59
64499;SHT31;51087;55.718;21.122;2023-03-14T11:54:17;6.76;94.82
64499;SHT31;51087;55.718;21.122;2023-03-14T11:56:47;6.75;95.26
64499;SHT31;51087;55.718;21.122;2023-03-14T11:59:19;6.66;95.37
64499;SHT31;51087;55.718;21.122;2023-03-14T12:02:05;6.69;95.23
64499;SHT31;51087;55.718;21.122;2023-03-14T12:10:29;6.86;94.98
64499;SHT31;51087;55.718;21.122;2023-03-14T12:12:55;6.90;95.13
64499;SHT31;51087;55.718;21.122;2023-03-14T12:15:21;6.90;94.75
64499;SHT31;51087;55.718;21.122;2023-03-14T12:17:54;6.84;94.56
64499;SHT31;51087;55.718;21.122;2023-03-14T12:20:24;6.84;94.67
64499;SHT31;51087;55.718;21.122;2023-03-14T12:22:55;6.87;94.80
64499;SHT31;51087;55.718;21.122;2023-03-14T12:25:24;7.00;95.04
64499;SHT31;51087;55.718;21.122;2023-03-14T12:30:30;7.00;94.25
64499;SHT31;51087;55.718;21.122;2023-03-14T12:35:47;7.01;94.54
64499;SHT31;51087;55.718;21.122;2023-03-14T12:43:47;7.08;94.68
64499;SHT31;51087;55.718;21.122;2023-03-14T12:46:22;7.07;94.79
64499;SHT31;51087;55.718;21.122;2023-03-14T12:59:37;7.49;94.24
64499;SHT31;51087;55.718;21.122;2023-03-14T13:04:44;7.45;94.06
64499;SHT31;51087;55.718;21.122;2023-03-14T13:07:13;7.39;93.96
64499;SHT31;51087;55.718;21.122;2023-03-14T13:12:26;7.51;93.42
64499;SHT31;51087;55.718;21.122;2023-03-14T13:14:53;7.54;93.49
64499;SHT31;51087;55.718;21.122;2023-03-14T13:17:25;7.68;93.49
64499;SHT31;51087;55.718;21.122;2023-03-14T13:19:56;7.85;93.08
64499;SHT31;51087;55.718;21.122;2023-03-14T13:22:32;7.82;92.77
64499;SHT31;51087;55.718;21.122;2023-03-14T13:25:05;7.75;92.32
64499;SHT31;51087;55.718;21.122;2023-03-14T13:27:33;7.68;92.34
64499;SHT31;51087;55.718;21.122;2023-03-14T13:30:27;7.35;92.51
64499;SHT31;51087;55.718;21.122;2023-03-14T13:32:51;7.17;92.70
64499;SHT31;51087;55.718;21.122;2023-03-14T13:35:21;7.03;93.41
64499;SHT31;51087;55.718;21.122;2023-03-14T13:37:52;7.03;93.67
64499;SHT31;51087;55.718;21.122;2023-03-14T13:40:25;7.03;93.66
64499;SHT31;51087;55.718;21.122;2023-03-14T13:43:03;7.05;93.84
64499;SHT31;51087;55.718;21.122;2023-03-14T13:45:29;7.04;93.77
64499;SHT31;51087;55.718;21.122;2023-03-14T13:47:55;7.01;93.59
64499;SHT31;51087;55.718;21.122;2023-03-14T13:50:20;7.00;93.42
64499;SHT31;51087;55.718;21.122;2023-03-14T13:52:46;6.96;93.54
64499;SHT31;51087;55.718;21.122;2023-03-14T13:55:17;6.96;93.54
64499;SHT31;51087;55.718;21.122;2023-03-14T13:57:48;7.07;93.58
64499;SHT31;51087;55.718;21.122;2023-03-14T14:00:19;7.15;93.45
64499;SHT31;51087;55.718;21.122;2023-03-14T14:02:45;7.30;93.38
64499;SHT31;51087;55.718;21.122;2023-03-14T14:05:11;7.51;92.78
64499;SHT31;51087;55.718;21.122;2023-03-14T14:07:38;7.51;92.51
64499;SHT31;51087;55.718;21.122;2023-03-14T14:10:04;7.41;92.66
64499;SHT31;51087;55.718;21.122;2023-03-14T14:12:39;7.38;92.96
64499;SHT31;51087;55.718;21.122;2023-03-14T14:15:16;7.32;92.82
64499;SHT31;51087;55.718;21.122;2023-03-14T14:17:55;7.35;93.10
64499;SHT31;51087;55.718;21.122;2023-03-14T14:20:23;7.41;93.25
64499;SHT31;51087;55.718;21.122;2023-03-14T14:22:57;7.41;93.22
64499;SHT31;51087;55.718;21.122;2023-03-14T14:25:22;7.42;93.29
64499;SHT31;51087;55.718;21.122;2023-03-14T14:27:49;7.48;93.33
64499;SHT31;51087;55.718;21.122;2023-03-14T14:32:46;7.63;93.50
64499;SHT31;51087;55.718;21.122;2023-03-14T14:35:31;7.91;93.09
64499;SHT31;51087;55.718;21.122;2023-03-14T14:37:57;8.00;92.93
64499;SHT31;51087;55.718;21.122;2023-03-14T14:40:28;8.10;92.75
64499;SHT31;51087;55.718;21.122;2023-03-14T14:42:55;8.28;92.91
64499;SHT31;51087;55.718;21.122;2023-03-14T14:45:27;8.55;92.92
64499;SHT31;51087;55.718;21.122;2023-03-14T14:48:03;8.72;92.30
64499;SHT31;51087;55.718;21.122;2023-03-14T14:53:28;8.82;91.60
64499;SHT31;51087;55.718;21.122;2023-03-14T14:55:57;8.87;91.82
64499;SHT31;51087;55.718;21.122;2023-03-14T15:01:13;9.18;92.04
64499;SHT31;51087;55.718;21.122;2023-03-14T15:03:42;9.21;92.00
64499;SHT31;51087;55.718;21.122;2023-03-14T15:06:10;9.24;91.56
64499;SHT31;51087;55.718;21.122;2023-03-14T15:08:37;9.26;91.28
64499;SHT31;51087;55.718;21.122;2023-03-14T15:11:02;9.34;91.38
64499;SHT31;51087;55.718;21.122;2023-03-14T15:13:27;9.28;91.34
64499;SHT31;51087;55.718;21.122;2023-03-14T15:15:53;9.16;91.08
64499;SHT31;51087;55.718;21.122;2023-03-14T15:18:24;9.06;91.23
64499;SHT31;51087;55.718;21.122;2023-03-14T15:20:50;9.04;91.32
64499;SHT31;51087;55.718;21.122;2023-03-14T15:23:18;8.99;91.45
64499;SHT31;51087;55.718;21.122;2023-03-14T15:25:44;8.87;91.25
64499;SHT31;51087;55.718;21.122;2023-03-14T15:28:22;8.77;91.46
64499;SHT31;51087;55.718;21.122;2023-03-14T15:30:50;8.61;91.43
64499;SHT31;51087;55.718;21.122;2023-03-14T15:33:16;8.52;91.95
64499;SHT31;51087;55.718;21.122;2023-03-14T15:35:42;8.51;91.90
64499;SHT31;51087;55.718;21.122;2023-03-14T15:38:11;8.38;92.09
64499;SHT31;51087;55.718;21.122;2023-03-14T15:40:37;8.33;92.46
64499;SHT31;51087;55.718;21.122;2023-03-14T15:43:02;8.31;92.73
64499;SHT31;51087;55.718;21.122;2023-03-14T15:45:28;8.27;92.47
64499;SHT31;51087;55.718;21.122;2023-03-14T15:47:53;8.24;92.86
64499;SHT31;51087;55.718;21.122;2023-03-14T15:50:19;8.24;92.66
64499;SHT31;51087;55.718;21.122;2023-03-14T15:52:44;8.30;93.01
64499;SHT31;51087;55.718;21.122;2023-03-14T15:55:10;8.30;93.08
64499;SHT31;51087;55.718;21.122;2023-03-14T15:57:36;8.24;92.88
64499;SHT31;51087;55.718;21.122;2023-03-14T16:00:02;8.21;93.06
64499;SHT31;51087;55.718;21.122;2023-03-14T16:02:29;8.13;92.98
64499;SHT31;51087;55.718;21.122;2023-03-14T16:04:55;8.17;93.38
64499;SHT31;51087;55.718;21.122;2023-03-14T16:07:20;8.45;93.97
64499;SHT31;51087;55.718;21.122;2023-03-14T16:09:46;8.55;93.20
64499;SHT31;51087;55.718;21.122;2023-03-14T16:12:11;8.53;93.22
64499;SHT31;51087;55.718;21.122;2023-03-14T16:14:36;8.84;93.60
64499;SHT31;51087;55.718;21.122;2023-03-14T16:17:06;9.09;93.11
64499;SHT31;51087;55.718;21.122;2023-03-14T16:19:35;8.94;92.21
64499;SHT31;51087;55.718;21.122;2023-03-14T16:22:01;8.97;93.07
64499;SHT31;51087;55.718;21.122;2023-03-14T16:24:27;9.04;91.17
64499;SHT31;51087;55.718;21.122;2023-03-14T16:26:53;8.94;90.49
64499;SHT31;51087;55.718;21.122;2023-03-14T16:29:18;8.84;91.32
64499;SHT31;51087;55.718;21.122;2023-03-14T16:31:44;8.71;92.01
64499;SHT31;51087;55.718;21.122;2023-03-14T16:34:09;8.59;92.52
64499;SHT31;51087;55.718;21.122;2023-03-14T16:36:34;8.52;92.82
64499;SHT31;51087;55.718;21.122;2023-03-14T16:39:00;8.33;92.83
64499;SHT31;51087;55.718;21.122;2023-03-14T16:41:25;8.24;93.13
64499;SHT31;51087;55.718;21.122;2023-03-14T16:43:59;8.21;93.36
64499;SHT31;51087;55.718;21.122;2023-03-14T16:46:26;8.20;93.84
64499;SHT31;51087;55.718;21.122;2023-03-14T16:48:53;8.23;94.31
64499;SHT31;51087;55.718;21.122;2023-03-14T16:51:18;7.97;95.91
64499;SHT31;51087;55.718;21.122;2023-03-14T16:53:44;8.01;96.72
64499;SHT31;51087;55.718;21.122;2023-03-14T16:56:10;7.72;98.39
64499;SHT31;51087;55.718;21.122;2023-03-14T16:58:36;7.55;99.49